sensor_id;sensor_type;location;lat;lon;timestamp;P1;durP1;ratioP1;P2;durP2;ratioP2
51384;SDS011;37478;55.682;37.462;2023-02-01T00:02:00;23.08;;;10.50;;
51384;SDS011;37478;55.682;37.462;2023-02-01T00:04:26;22.55;;;10.85;;
51384;SDS011;37478;55.682;37.462;2023-02-01T00:06:51;22.63;;;10.90;;
51384;SDS011;37478;55.682;37.462;2023-02-01T00:09:17;23.65;;;10.57;;
51384;SDS011;37478;55.682;37.462;2023-02-01T00:11:42;23.70;;;9.50;;
51384;SDS011;37478;55.682;37.462;2023-02-01T00:14:07;24.02;;;10.88;;
51384;SDS011;37478;55.682;37.462;2023-02-01T00:16:33;23.42;;;10.45;;
51384;SDS011;37478;55.682;37.462;2023-02-01T00:18:59;18.67;;;9.65;;
51384;SDS011;37478;55.682;37.462;2023-02-01T00:21:25;19.98;;;9.35;;
51384;SDS011;37478;55.682;37.462;2023-02-01T00:23:51;21.95;;;10.57;;
51384;SDS011;37478;55.682;37.462;2023-02-01T00:26:17;22.17;;;9.73;;
51384;SDS011;37478;55.682;37.462;2023-02-01T00:28:43;22.77;;;10.70;;
51384;SDS011;37478;55.682;37.462;2023-02-01T00:31:08;19.92;;;9.55;;
51384;SDS011;37478;55.682;37.462;2023-02-01T00:33:33;17.92;;;9.48;;
51384;SDS011;37478;55.682;37.462;2023-02-01T00:36:08;22.98;;;9.65;;
51384;SDS011;37478;55.682;37.462;2023-02-01T00:38:35;19.48;;;9.20;;
51384;SDS011;37478;55.682;37.462;2023-02-01T00:43:32;23.90;;;10.30;;
51384;SDS011;37478;55.682;37.462;2023-02-01T00:45:57;22.27;;;9.50;;
51384;SDS011;37478;55.682;37.462;2023-02-01T00:48:23;20.60;;;10.25;;
51384;SDS011;37478;55.682;37.462;2023-02-01T00:50:48;22.15;;;8.73;;
51384;SDS011;37478;55.682;37.462;2023-02-01T00:53:14;23.00;;;9.38;;
51384;SDS011;37478;55.682;37.462;2023-02-01T00:55:39;18.00;;;9.05;;
51384;SDS011;37478;55.682;37.462;2023-02-01T00:58:04;20.55;;;9.93;;
51384;SDS011;37478;55.682;37.462;2023-02-01T01:00:31;20.25;;;9.25;;
51384;SDS011;37478;55.682;37.462;2023-02-01T01:02:57;17.70;;;8.77;;
51384;SDS011;37478;55.682;37.462;2023-02-01T01:05:22;20.33;;;9.60;;
51384;SDS011;37478;55.682;37.462;2023-02-01T01:07:47;23.90;;;9.73;;
51384;SDS011;37478;55.682;37.462;2023-02-01T01:10:12;19.80;;;9.68;;
51384;SDS011;37478;55.682;37.462;2023-02-01T01:12:38;24.17;;;12.00;;
51384;SDS011;37478;55.682;37.462;2023-02-01T01:15:03;23.83;;;10.15;;
51384;SDS011;37478;55.682;37.462;2023-02-01T01:17:30;21.25;;;10.02;;
51384;SDS011;37478;55.682;37.462;2023-02-01T01:19:56;20.58;;;8.90;;
51384;SDS011;37478;55.682;37.462;2023-02-01T01:22:21;23.45;;;10.30;;
51384;SDS011;37478;55.682;37.462;2023-02-01T01:24:47;24.95;;;9.38;;
51384;SDS011;37478;55.682;37.462;2023-02-01T01:27:12;20.88;;;10.02;;
51384;SDS011;37478;55.682;37.462;2023-02-01T01:29:37;21.75;;;9.25;;
51384;SDS011;37478;55.682;37.462;2023-02-01T01:32:02;24.25;;;10.95;;
51384;SDS011;37478;55.682;37.462;2023-02-01T01:34:28;24.33;;;9.02;;
51384;SDS011;37478;55.682;37.462;2023-02-01T01:36:53;21.02;;;8.82;;
51384;SDS011;37478;55.682;37.462;2023-02-01T01:39:19;23.95;;;9.88;;
51384;SDS011;37478;55.682;37.462;2023-02-01T01:41:44;21.33;;;10.40;;
51384;SDS011;37478;55.682;37.462;2023-02-01T01:46:53;21.23;;;8.25;;
51384;SDS011;37478;55.682;37.462;2023-02-01T01:49:22;19.92;;;9.13;;
51384;SDS011;37478;55.682;37.462;2023-02-01T01:51:52;23.88;;;10.38;;
51384;SDS011;37478;55.682;37.462;2023-02-01T01:54:27;19.38;;;9.48;;
51384;SDS011;37478;55.682;37.462;2023-02-01T01:56:55;20.27;;;9.50;;
51384;SDS011;37478;55.682;37.462;2023-02-01T01:59:21;22.77;;;11.40;;
51384;SDS011;37478;55.682;37.462;2023-02-01T02:01:47;25.08;;;10.57;;
51384;SDS011;37478;55.682;37.462;2023-02-01T02:04:12;26.80;;;10.45;;
51384;SDS011;37478;55.682;37.462;2023-02-01T02:06:47;20.02;;;8.95;;
51384;SDS011;37478;55.682;37.462;2023-02-01T02:09:15;24.42;;;9.52;;
51384;SDS011;37478;55.682;37.462;2023-02-01T02:11:41;18.67;;;10.10;;
51384;SDS011;37478;55.682;37.462;2023-02-01T02:14:07;24.13;;;11.32;;
51384;SDS011;37478;55.682;37.462;2023-02-01T02:21:42;25.95;;;10.48;;
51384;SDS011;37478;55.682;37.462;2023-02-01T02:41:42;22.30;;;10.20;;
51384;SDS011;37478;55.682;37.462;2023-02-01T02:47:21;20.15;;;10.05;;
51384;SDS011;37478;55.682;37.462;2023-02-01T02:52:36;25.10;;;11.32;;
51384;SDS011;37478;55.682;37.462;2023-02-01T02:55:22;20.98;;;9.88;;
51384;SDS011;37478;55.682;37.462;2023-02-01T02:57:48;27.83;;;10.25;;
51384;SDS011;37478;55.682;37.462;2023-02-01T03:00:33;22.02;;;10.70;;
51384;SDS011;37478;55.682;37.462;2023-02-01T03:03:17;26.00;;;10.90;;
51384;SDS011;37478;55.682;37.462;2023-02-01T03:06:01;22.80;;;11.05;;
51384;SDS011;37478;55.682;37.462;2023-02-01T03:08:27;23.90;;;10.32;;
51384;SDS011;37478;55.682;37.462;2023-02-01T03:11:03;22.25;;;10.18;;
51384;SDS011;37478;55.682;37.462;2023-02-01T03:16:18;29.48;;;11.13;;
51384;SDS011;37478;55.682;37.462;2023-02-01T03:18:46;26.80;;;12.27;;
51384;SDS011;37478;55.682;37.462;2023-02-01T03:21:38;24.67;;;9.88;;
51384;SDS011;37478;55.682;37.462;2023-02-01T03:24:02;28.50;;;11.60;;
51384;SDS011;37478;55.682;37.462;2023-02-01T03:26:28;26.40;;;11.50;;
51384;SDS011;37478;55.682;37.462;2023-02-01T03:28:57;23.58;;;10.80;;
51384;SDS011;37478;55.682;37.462;2023-02-01T03:31:26;24.15;;;11.63;;
51384;SDS011;37478;55.682;37.462;2023-02-01T03:33:52;22.50;;;10.82;;
51384;SDS011;37478;55.682;37.462;2023-02-01T03:46:17;27.27;;;11.55;;
51384;SDS011;37478;55.682;37.462;2023-02-01T03:48:45;25.20;;;12.75;;
51384;SDS011;37478;55.682;37.462;2023-02-01T03:51:10;25.20;;;12.00;;
51384;SDS011;37478;55.682;37.462;2023-02-01T03:53:37;27.42;;;10.75;;
51384;SDS011;37478;55.682;37.462;2023-02-01T03:56:04;26.58;;;11.57;;
51384;SDS011;37478;55.682;37.462;2023-02-01T03:58:30;31.25;;;11.75;;
51384;SDS011;37478;55.682;37.462;2023-02-01T04:00:56;24.00;;;12.35;;
51384;SDS011;37478;55.682;37.462;2023-02-01T04:03:22;23.05;;;12.07;;
51384;SDS011;37478;55.682;37.462;2023-02-01T04:05:51;34.13;;;14.00;;
51384;SDS011;37478;55.682;37.462;2023-02-01T04:08:17;25.13;;;12.38;;
51384;SDS011;37478;55.682;37.462;2023-02-01T04:10:42;26.00;;;11.73;;
51384;SDS011;37478;55.682;37.462;2023-02-01T04:13:09;24.48;;;11.25;;
51384;SDS011;37478;55.682;37.462;2023-02-01T04:15:34;29.35;;;11.55;;
51384;SDS011;37478;55.682;37.462;2023-02-01T04:18:00;23.25;;;11.27;;
51384;SDS011;37478;55.682;37.462;2023-02-01T04:20:25;28.58;;;11.82;;
51384;SDS011;37478;55.682;37.462;2023-02-01T04:22:50;25.08;;;11.10;;
51384;SDS011;37478;55.682;37.462;2023-02-01T04:25:16;34.58;;;12.45;;
51384;SDS011;37478;55.682;37.462;2023-02-01T04:27:42;23.90;;;11.48;;
51384;SDS011;37478;55.682;37.462;2023-02-01T04:30:07;26.23;;;11.00;;
51384;SDS011;37478;55.682;37.462;2023-02-01T04:32:36;26.98;;;12.75;;
51384;SDS011;37478;55.682;37.462;2023-02-01T04:35:02;25.85;;;12.00;;
51384;SDS011;37478;55.682;37.462;2023-02-01T04:37:28;29.23;;;12.25;;
51384;SDS011;37478;55.682;37.462;2023-02-01T04:39:54;28.42;;;12.68;;
51384;SDS011;37478;55.682;37.462;2023-02-01T04:42:19;26.02;;;12.93;;
51384;SDS011;37478;55.682;37.462;2023-02-01T04:44:44;36.70;;;13.95;;
51384;SDS011;37478;55.682;37.462;2023-02-01T04:47:09;30.48;;;11.82;;
51384;SDS011;37478;55.682;37.462;2023-02-01T04:49:35;26.65;;;11.45;;
51384;SDS011;37478;55.682;37.462;2023-02-01T04:52:00;27.20;;;11.20;;
51384;SDS011;37478;55.682;37.462;2023-02-01T04:54:25;20.38;;;10.45;;
51384;SDS011;37478;55.682;37.462;2023-02-01T04:56:51;30.98;;;13.00;;
51384;SDS011;37478;55.682;37.462;2023-02-01T04:59:16;36.03;;;15.85;;
51384;SDS011;37478;55.682;37.462;2023-02-01T05:01:41;26.77;;;11.70;;
51384;SDS011;37478;55.682;37.462;2023-02-01T05:04:07;30.50;;;13.10;;
51384;SDS011;37478;55.682;37.462;2023-02-01T05:06:32;32.17;;;12.68;;
51384;SDS011;37478;55.682;37.462;2023-02-01T05:08:57;27.95;;;12.55;;
51384;SDS011;37478;55.682;37.462;2023-02-01T05:11:23;33.72;;;12.27;;
51384;SDS011;37478;55.682;37.462;2023-02-01T05:14:06;29.02;;;13.30;;
51384;SDS011;37478;55.682;37.462;2023-02-01T05:16:32;30.30;;;12.40;;
51384;SDS011;37478;55.682;37.462;2023-02-01T05:18:57;29.33;;;12.90;;
51384;SDS011;37478;55.682;37.462;2023-02-01T05:21:23;27.48;;;13.77;;
51384;SDS011;37478;55.682;37.462;2023-02-01T05:23:48;27.73;;;12.80;;
51384;SDS011;37478;55.682;37.462;2023-02-01T05:26:32;37.30;;;16.00;;
51384;SDS011;37478;55.682;37.462;2023-02-01T05:28:57;36.38;;;15.20;;
51384;SDS011;37478;55.682;37.462;2023-02-01T05:31:22;33.40;;;14.38;;
51384;SDS011;37478;55.682;37.462;2023-02-01T05:33:48;40.40;;;15.85;;
51384;SDS011;37478;55.682;37.462;2023-02-01T05:36:13;32.53;;;14.27;;
51384;SDS011;37478;55.682;37.462;2023-02-01T05:38:38;31.58;;;14.23;;
51384;SDS011;37478;55.682;37.462;2023-02-01T05:41:04;35.80;;;14.52;;
51384;SDS011;37478;55.682;37.462;2023-02-01T05:43:29;31.42;;;13.82;;
51384;SDS011;37478;55.682;37.462;2023-02-01T05:45:55;33.28;;;13.18;;
51384;SDS011;37478;55.682;37.462;2023-02-01T05:48:20;31.77;;;14.50;;
51384;SDS011;37478;55.682;37.462;2023-02-01T05:50:45;34.83;;;15.07;;
51384;SDS011;37478;55.682;37.462;2023-02-01T05:53:11;36.63;;;14.05;;
51384;SDS011;37478;55.682;37.462;2023-02-01T05:55:36;27.55;;;13.73;;
51384;SDS011;37478;55.682;37.462;2023-02-01T05:58:02;35.92;;;15.38;;
51384;SDS011;37478;55.682;37.462;2023-02-01T06:00:27;21.70;;;12.88;;
51384;SDS011;37478;55.682;37.462;2023-02-01T06:02:52;27.75;;;13.18;;
51384;SDS011;37478;55.682;37.462;2023-02-01T06:05:17;37.00;;;13.70;;
51384;SDS011;37478;55.682;37.462;2023-02-01T06:07:43;30.80;;;14.95;;
51384;SDS011;37478;55.682;37.462;2023-02-01T06:10:08;32.67;;;13.52;;
51384;SDS011;37478;55.682;37.462;2023-02-01T06:12:34;33.40;;;14.43;;
51384;SDS011;37478;55.682;37.462;2023-02-01T06:14:59;33.83;;;14.40;;
51384;SDS011;37478;55.682;37.462;2023-02-01T06:17:24;33.78;;;13.30;;
51384;SDS011;37478;55.682;37.462;2023-02-01T06:19:50;29.27;;;13.93;;
51384;SDS011;37478;55.682;37.462;2023-02-01T06:22:15;41.05;;;14.48;;
51384;SDS011;37478;55.682;37.462;2023-02-01T06:24:40;35.75;;;14.73;;
51384;SDS011;37478;55.682;37.462;2023-02-01T06:27:06;31.35;;;13.32;;
51384;SDS011;37478;55.682;37.462;2023-02-01T06:29:32;42.97;;;15.07;;
51384;SDS011;37478;55.682;37.462;2023-02-01T06:31:58;35.22;;;15.65;;
51384;SDS011;37478;55.682;37.462;2023-02-01T06:34:23;35.40;;;12.63;;
51384;SDS011;37478;55.682;37.462;2023-02-01T06:36:49;33.90;;;14.38;;
51384;SDS011;37478;55.682;37.462;2023-02-01T06:39:14;34.03;;;14.38;;
51384;SDS011;37478;55.682;37.462;2023-02-01T06:41:41;37.05;;;15.20;;
51384;SDS011;37478;55.682;37.462;2023-02-01T06:44:07;39.90;;;15.30;;
51384;SDS011;37478;55.682;37.462;2023-02-01T06:46:33;35.17;;;14.30;;
51384;SDS011;37478;55.682;37.462;2023-02-01T06:48:58;36.33;;;13.80;;
51384;SDS011;37478;55.682;37.462;2023-02-01T06:51:25;31.90;;;15.88;;
51384;SDS011;37478;55.682;37.462;2023-02-01T06:53:51;37.22;;;16.10;;
51384;SDS011;37478;55.682;37.462;2023-02-01T06:56:16;39.38;;;16.58;;
51384;SDS011;37478;55.682;37.462;2023-02-01T06:58:42;34.38;;;13.55;;
51384;SDS011;37478;55.682;37.462;2023-02-01T07:01:08;40.83;;;15.45;;
51384;SDS011;37478;55.682;37.462;2023-02-01T07:03:34;31.00;;;12.32;;
51384;SDS011;37478;55.682;37.462;2023-02-01T07:05:59;39.63;;;15.30;;
51384;SDS011;37478;55.682;37.462;2023-02-01T07:08:25;43.85;;;14.68;;
51384;SDS011;37478;55.682;37.462;2023-02-01T07:10:51;34.92;;;14.25;;
51384;SDS011;37478;55.682;37.462;2023-02-01T07:13:16;31.40;;;13.15;;
51384;SDS011;37478;55.682;37.462;2023-02-01T07:15:42;42.70;;;16.08;;
51384;SDS011;37478;55.682;37.462;2023-02-01T07:18:07;33.85;;;15.43;;
51384;SDS011;37478;55.682;37.462;2023-02-01T07:20:32;33.20;;;14.00;;
51384;SDS011;37478;55.682;37.462;2023-02-01T07:22:57;34.58;;;15.25;;
51384;SDS011;37478;55.682;37.462;2023-02-01T07:25:23;29.52;;;13.65;;
51384;SDS011;37478;55.682;37.462;2023-02-01T07:27:48;32.13;;;12.68;;
51384;SDS011;37478;55.682;37.462;2023-02-01T07:30:14;34.30;;;13.57;;
51384;SDS011;37478;55.682;37.462;2023-02-01T07:32:39;29.15;;;13.45;;
51384;SDS011;37478;55.682;37.462;2023-02-01T07:35:04;34.28;;;13.90;;
51384;SDS011;37478;55.682;37.462;2023-02-01T07:37:30;32.67;;;12.98;;
51384;SDS011;37478;55.682;37.462;2023-02-01T07:39:55;36.28;;;14.57;;
51384;SDS011;37478;55.682;37.462;2023-02-01T07:42:21;35.67;;;15.05;;
51384;SDS011;37478;55.682;37.462;2023-02-01T07:44:46;31.65;;;13.75;;
51384;SDS011;37478;55.682;37.462;2023-02-01T07:47:11;28.58;;;13.75;;
51384;SDS011;37478;55.682;37.462;2023-02-01T07:49:37;31.02;;;12.68;;
51384;SDS011;37478;55.682;37.462;2023-02-01T07:52:02;34.38;;;14.45;;
51384;SDS011;37478;55.682;37.462;2023-02-01T07:54:27;29.70;;;13.88;;
51384;SDS011;37478;55.682;37.462;2023-02-01T07:56:53;33.28;;;13.30;;
51384;SDS011;37478;55.682;37.462;2023-02-01T07:59:18;31.85;;;12.15;;
51384;SDS011;37478;55.682;37.462;2023-02-01T08:01:43;36.15;;;14.02;;
51384;SDS011;37478;55.682;37.462;2023-02-01T08:04:11;30.42;;;12.38;;
51384;SDS011;37478;55.682;37.462;2023-02-01T08:06:37;30.88;;;13.50;;
51384;SDS011;37478;55.682;37.462;2023-02-01T08:09:03;34.20;;;15.45;;
51384;SDS011;37478;55.682;37.462;2023-02-01T08:11:29;27.40;;;11.55;;
51384;SDS011;37478;55.682;37.462;2023-02-01T08:13:54;32.10;;;14.63;;
51384;SDS011;37478;55.682;37.462;2023-02-01T08:16:20;31.65;;;12.38;;
51384;SDS011;37478;55.682;37.462;2023-02-01T08:18:46;30.92;;;13.93;;
51384;SDS011;37478;55.682;37.462;2023-02-01T08:21:14;34.08;;;14.38;;
51384;SDS011;37478;55.682;37.462;2023-02-01T08:23:39;29.05;;;13.65;;
51384;SDS011;37478;55.682;37.462;2023-02-01T08:26:06;37.65;;;15.68;;
51384;SDS011;37478;55.682;37.462;2023-02-01T08:28:31;36.97;;;15.48;;
51384;SDS011;37478;55.682;37.462;2023-02-01T08:30:56;33.55;;;13.85;;
51384;SDS011;37478;55.682;37.462;2023-02-01T08:33:22;37.33;;;15.57;;
51384;SDS011;37478;55.682;37.462;2023-02-01T08:35:47;30.77;;;15.30;;
51384;SDS011;37478;55.682;37.462;2023-02-01T08:38:12;33.83;;;14.95;;
51384;SDS011;37478;55.682;37.462;2023-02-01T08:40:38;38.63;;;15.48;;
51384;SDS011;37478;55.682;37.462;2023-02-01T08:43:03;32.20;;;14.38;;
51384;SDS011;37478;55.682;37.462;2023-02-01T08:45:29;29.52;;;13.38;;
51384;SDS011;37478;55.682;37.462;2023-02-01T08:47:55;37.08;;;13.90;;
51384;SDS011;37478;55.682;37.462;2023-02-01T08:50:21;36.85;;;14.75;;
51384;SDS011;37478;55.682;37.462;2023-02-01T08:52:47;29.65;;;14.15;;
51384;SDS011;37478;55.682;37.462;2023-02-01T08:55:13;37.58;;;14.55;;
51384;SDS011;37478;55.682;37.462;2023-02-01T08:57:38;31.00;;;12.20;;
51384;SDS011;37478;55.682;37.462;2023-02-01T09:00:04;34.28;;;13.73;;
51384;SDS011;37478;55.682;37.462;2023-02-01T09:02:30;25.02;;;12.02;;
51384;SDS011;37478;55.682;37.462;2023-02-01T09:04:55;29.00;;;13.27;;
51384;SDS011;37478;55.682;37.462;2023-02-01T09:07:21;24.73;;;12.00;;
51384;SDS011;37478;55.682;37.462;2023-02-01T09:09:46;32.13;;;13.90;;
51384;SDS011;37478;55.682;37.462;2023-02-01T09:12:11;25.40;;;12.50;;
51384;SDS011;37478;55.682;37.462;2023-02-01T09:14:37;32.35;;;14.88;;
51384;SDS011;37478;55.682;37.462;2023-02-01T09:17:02;33.03;;;13.80;;
51384;SDS011;37478;55.682;37.462;2023-02-01T09:19:27;37.25;;;15.02;;
51384;SDS011;37478;55.682;37.462;2023-02-01T09:21:53;35.28;;;14.60;;
51384;SDS011;37478;55.682;37.462;2023-02-01T09:24:18;31.63;;;13.25;;
51384;SDS011;37478;55.682;37.462;2023-02-01T09:26:44;31.48;;;14.20;;
51384;SDS011;37478;55.682;37.462;2023-02-01T09:29:09;22.50;;;12.77;;
51384;SDS011;37478;55.682;37.462;2023-02-01T09:31:38;30.17;;;13.57;;
51384;SDS011;37478;55.682;37.462;2023-02-01T09:34:03;32.70;;;13.25;;
51384;SDS011;37478;55.682;37.462;2023-02-01T09:36:29;28.35;;;12.70;;
51384;SDS011;37478;55.682;37.462;2023-02-01T09:38:55;30.42;;;12.35;;
51384;SDS011;37478;55.682;37.462;2023-02-01T09:46:35;28.27;;;13.43;;
51384;SDS011;37478;55.682;37.462;2023-02-01T09:49:02;28.98;;;12.50;;
51384;SDS011;37478;55.682;37.462;2023-02-01T09:51:38;31.73;;;12.65;;
51384;SDS011;37478;55.682;37.462;2023-02-01T09:54:16;26.33;;;13.95;;
51384;SDS011;37478;55.682;37.462;2023-02-01T09:56:44;29.10;;;12.25;;
51384;SDS011;37478;55.682;37.462;2023-02-01T10:01:42;30.40;;;12.02;;
51384;SDS011;37478;55.682;37.462;2023-02-01T10:04:09;26.58;;;12.50;;
51384;SDS011;37478;55.682;37.462;2023-02-01T10:06:41;30.10;;;14.88;;
51384;SDS011;37478;55.682;37.462;2023-02-01T10:11:39;27.67;;;13.80;;
51384;SDS011;37478;55.682;37.462;2023-02-01T10:16:47;34.65;;;14.48;;
51384;SDS011;37478;55.682;37.462;2023-02-01T10:22:05;30.42;;;14.45;;
51384;SDS011;37478;55.682;37.462;2023-02-01T10:26:57;33.95;;;15.95;;
51384;SDS011;37478;55.682;37.462;2023-02-01T10:29:25;28.25;;;13.95;;
51384;SDS011;37478;55.682;37.462;2023-02-01T10:31:52;30.90;;;13.73;;
51384;SDS011;37478;55.682;37.462;2023-02-01T10:37:27;33.67;;;15.63;;
51384;SDS011;37478;55.682;37.462;2023-02-01T10:39:31;31.55;;;14.27;;
51384;SDS011;37478;55.682;37.462;2023-02-01T10:41:56;31.90;;;15.68;;
51384;SDS011;37478;55.682;37.462;2023-02-01T10:44:23;29.70;;;13.00;;
51384;SDS011;37478;55.682;37.462;2023-02-01T10:46:50;38.67;;;15.57;;
51384;SDS011;37478;55.682;37.462;2023-02-01T10:49:20;31.02;;;15.82;;
51384;SDS011;37478;55.682;37.462;2023-02-01T10:51:55;34.03;;;15.40;;
51384;SDS011;37478;55.682;37.462;2023-02-01T10:54:32;35.05;;;14.73;;
51384;SDS011;37478;55.682;37.462;2023-02-01T10:56:58;37.72;;;16.23;;
51384;SDS011;37478;55.682;37.462;2023-02-01T10:59:24;34.38;;;16.67;;
51384;SDS011;37478;55.682;37.462;2023-02-01T11:01:50;41.80;;;19.30;;
51384;SDS011;37478;55.682;37.462;2023-02-01T11:04:23;42.03;;;18.40;;
51384;SDS011;37478;55.682;37.462;2023-02-01T11:06:53;39.95;;;16.83;;
51384;SDS011;37478;55.682;37.462;2023-02-01T11:09:19;45.88;;;18.30;;
51384;SDS011;37478;55.682;37.462;2023-02-01T11:14:15;41.00;;;18.38;;
51384;SDS011;37478;55.682;37.462;2023-02-01T11:16:40;44.92;;;18.20;;
51384;SDS011;37478;55.682;37.462;2023-02-01T11:19:06;39.80;;;16.80;;
51384;SDS011;37478;55.682;37.462;2023-02-01T11:21:34;38.55;;;18.05;;
51384;SDS011;37478;55.682;37.462;2023-02-01T11:24:00;40.92;;;17.63;;
51384;SDS011;37478;55.682;37.462;2023-02-01T11:26:26;34.53;;;15.90;;
51384;SDS011;37478;55.682;37.462;2023-02-01T11:29:14;38.92;;;16.67;;
51384;SDS011;37478;55.682;37.462;2023-02-01T11:31:38;40.40;;;17.85;;
51384;SDS011;37478;55.682;37.462;2023-02-01T11:34:07;42.10;;;18.92;;
51384;SDS011;37478;55.682;37.462;2023-02-01T11:36:33;39.78;;;18.65;;
51384;SDS011;37478;55.682;37.462;2023-02-01T11:41:54;34.00;;;16.80;;
51384;SDS011;37478;55.682;37.462;2023-02-01T11:44:42;41.97;;;17.30;;
51384;SDS011;37478;55.682;37.462;2023-02-01T11:49:40;52.40;;;17.13;;
51384;SDS011;37478;55.682;37.462;2023-02-01T11:54:45;38.70;;;16.25;;
51384;SDS011;37478;55.682;37.462;2023-02-01T12:10:21;26.88;;;14.70;;
51384;SDS011;37478;55.682;37.462;2023-02-01T12:23:32;30.10;;;12.40;;
51384;SDS011;37478;55.682;37.462;2023-02-01T12:26:07;24.40;;;13.10;;
51384;SDS011;37478;55.682;37.462;2023-02-01T12:38:39;30.15;;;10.90;;
51384;SDS011;37478;55.682;37.462;2023-02-01T12:46:12;26.23;;;12.68;;
51384;SDS011;37478;55.682;37.462;2023-02-01T12:48:39;20.17;;;11.07;;
51384;SDS011;37478;55.682;37.462;2023-02-01T12:51:09;24.27;;;11.45;;
51384;SDS011;37478;55.682;37.462;2023-02-01T12:53:58;22.38;;;11.48;;
51384;SDS011;37478;55.682;37.462;2023-02-01T12:56:43;25.63;;;10.98;;
51384;SDS011;37478;55.682;37.462;2023-02-01T12:59:20;24.27;;;11.38;;
51384;SDS011;37478;55.682;37.462;2023-02-01T13:07:16;24.52;;;10.77;;
51384;SDS011;37478;55.682;37.462;2023-02-01T13:12:19;20.77;;;9.70;;
51384;SDS011;37478;55.682;37.462;2023-02-01T13:14:56;24.58;;;10.90;;
51384;SDS011;37478;55.682;37.462;2023-02-01T13:17:27;22.05;;;10.75;;
51384;SDS011;37478;55.682;37.462;2023-02-01T13:19:54;22.33;;;10.02;;
51384;SDS011;37478;55.682;37.462;2023-02-01T13:27:18;21.67;;;11.68;;
51384;SDS011;37478;55.682;37.462;2023-02-01T13:42:51;20.63;;;9.60;;
51384;SDS011;37478;55.682;37.462;2023-02-01T13:45:22;21.20;;;9.80;;
51384;SDS011;37478;55.682;37.462;2023-02-01T13:47:49;21.33;;;9.68;;
51384;SDS011;37478;55.682;37.462;2023-02-01T13:52:50;18.95;;;10.43;;
51384;SDS011;37478;55.682;37.462;2023-02-01T13:57:45;17.90;;;9.07;;
51384;SDS011;37478;55.682;37.462;2023-02-01T14:05:01;18.05;;;10.07;;
51384;SDS011;37478;55.682;37.462;2023-02-01T14:07:27;22.83;;;10.23;;
51384;SDS011;37478;55.682;37.462;2023-02-01T14:09:53;19.50;;;9.98;;
51384;SDS011;37478;55.682;37.462;2023-02-01T14:15:21;18.30;;;8.73;;
51384;SDS011;37478;55.682;37.462;2023-02-01T14:17:47;36.83;;;10.88;;
51384;SDS011;37478;55.682;37.462;2023-02-01T14:23:03;23.00;;;10.45;;
51384;SDS011;37478;55.682;37.462;2023-02-01T14:25:32;19.98;;;10.43;;
51384;SDS011;37478;55.682;37.462;2023-02-01T14:27:58;20.15;;;8.95;;
51384;SDS011;37478;55.682;37.462;2023-02-01T14:30:23;19.20;;;9.85;;
51384;SDS011;37478;55.682;37.462;2023-02-01T14:32:49;18.02;;;8.93;;
51384;SDS011;37478;55.682;37.462;2023-02-01T14:37:42;20.90;;;10.27;;
51384;SDS011;37478;55.682;37.462;2023-02-01T14:55:48;24.70;;;8.98;;
51384;SDS011;37478;55.682;37.462;2023-02-01T15:00:59;20.15;;;8.80;;
51384;SDS011;37478;55.682;37.462;2023-02-01T15:05:57;17.20;;;9.05;;
51384;SDS011;37478;55.682;37.462;2023-02-01T15:08:28;25.92;;;10.13;;
51384;SDS011;37478;55.682;37.462;2023-02-01T15:10:54;20.60;;;10.25;;
51384;SDS011;37478;55.682;37.462;2023-02-01T15:13:22;22.40;;;9.65;;
51384;SDS011;37478;55.682;37.462;2023-02-01T15:16:10;20.23;;;9.30;;
51384;SDS011;37478;55.682;37.462;2023-02-01T15:18:33;17.87;;;8.93;;
51384;SDS011;37478;55.682;37.462;2023-02-01T15:20:59;21.17;;;8.73;;
51384;SDS011;37478;55.682;37.462;2023-02-01T15:23:25;23.42;;;8.85;;
51384;SDS011;37478;55.682;37.462;2023-02-01T15:25:50;21.65;;;8.52;;
51384;SDS011;37478;55.682;37.462;2023-02-01T15:28:16;20.05;;;9.13;;
51384;SDS011;37478;55.682;37.462;2023-02-01T15:30:55;19.80;;;9.60;;
51384;SDS011;37478;55.682;37.462;2023-02-01T15:33:21;17.83;;;8.65;;
51384;SDS011;37478;55.682;37.462;2023-02-01T15:35:47;20.30;;;8.55;;
51384;SDS011;37478;55.682;37.462;2023-02-01T15:38:20;19.27;;;9.05;;
51384;SDS011;37478;55.682;37.462;2023-02-01T15:40:56;18.17;;;9.95;;
51384;SDS011;37478;55.682;37.462;2023-02-01T15:43:21;17.63;;;9.20;;
51384;SDS011;37478;55.682;37.462;2023-02-01T15:45:47;24.13;;;9.75;;
51384;SDS011;37478;55.682;37.462;2023-02-01T15:48:15;21.30;;;10.23;;
51384;SDS011;37478;55.682;37.462;2023-02-01T15:50:41;20.98;;;9.82;;
51384;SDS011;37478;55.682;37.462;2023-02-01T15:53:12;20.30;;;9.52;;
51384;SDS011;37478;55.682;37.462;2023-02-01T15:55:40;22.13;;;8.85;;
51384;SDS011;37478;55.682;37.462;2023-02-01T15:58:27;20.33;;;8.80;;
51384;SDS011;37478;55.682;37.462;2023-02-01T16:00:56;20.17;;;8.85;;
51384;SDS011;37478;55.682;37.462;2023-02-01T16:03:39;24.73;;;10.93;;
51384;SDS011;37478;55.682;37.462;2023-02-01T16:06:28;19.05;;;9.43;;
51384;SDS011;37478;55.682;37.462;2023-02-01T16:08:55;19.45;;;9.50;;
51384;SDS011;37478;55.682;37.462;2023-02-01T16:13:55;17.02;;;8.88;;
51384;SDS011;37478;55.682;37.462;2023-02-01T16:16:20;22.13;;;9.73;;
51384;SDS011;37478;55.682;37.462;2023-02-01T16:18:46;26.27;;;12.38;;
51384;SDS011;37478;55.682;37.462;2023-02-01T16:21:11;25.65;;;11.80;;
51384;SDS011;37478;55.682;37.462;2023-02-01T16:23:36;20.90;;;8.40;;
51384;SDS011;37478;55.682;37.462;2023-02-01T16:26:02;19.42;;;7.55;;
51384;SDS011;37478;55.682;37.462;2023-02-01T16:28:28;19.98;;;10.13;;
51384;SDS011;37478;55.682;37.462;2023-02-01T16:30:53;21.85;;;10.68;;
51384;SDS011;37478;55.682;37.462;2023-02-01T16:33:19;16.65;;;7.93;;
51384;SDS011;37478;55.682;37.462;2023-02-01T16:35:47;19.48;;;9.15;;
51384;SDS011;37478;55.682;37.462;2023-02-01T16:38:13;22.20;;;9.57;;
51384;SDS011;37478;55.682;37.462;2023-02-01T16:40:39;24.95;;;9.93;;
51384;SDS011;37478;55.682;37.462;2023-02-01T16:43:11;21.13;;;11.23;;
51384;SDS011;37478;55.682;37.462;2023-02-01T16:45:36;18.73;;;7.97;;
51384;SDS011;37478;55.682;37.462;2023-02-01T16:48:02;22.85;;;10.52;;
51384;SDS011;37478;55.682;37.462;2023-02-01T16:50:29;21.63;;;9.05;;
51384;SDS011;37478;55.682;37.462;2023-02-01T16:52:56;23.13;;;10.05;;
51384;SDS011;37478;55.682;37.462;2023-02-01T16:55:22;18.88;;;9.93;;
51384;SDS011;37478;55.682;37.462;2023-02-01T16:57:47;22.38;;;10.48;;
51384;SDS011;37478;55.682;37.462;2023-02-01T17:00:13;23.17;;;10.00;;
51384;SDS011;37478;55.682;37.462;2023-02-01T17:02:40;19.67;;;9.25;;
51384;SDS011;37478;55.682;37.462;2023-02-01T17:05:07;20.88;;;11.00;;
51384;SDS011;37478;55.682;37.462;2023-02-01T17:07:32;20.40;;;9.48;;
51384;SDS011;37478;55.682;37.462;2023-02-01T17:09:58;18.40;;;9.32;;
51384;SDS011;37478;55.682;37.462;2023-02-01T17:14:49;18.45;;;8.18;;
51384;SDS011;37478;55.682;37.462;2023-02-01T17:17:15;18.92;;;9.98;;
51384;SDS011;37478;55.682;37.462;2023-02-01T17:19:40;26.38;;;10.38;;